sensor_id;sensor_type;location;lat;lon;timestamp;pressure;altitude;pressure_sealevel;temperature;humidity
15314;BME280;7757;52.626;4.746;2023-04-29T00:01:18;101384.19;;;16.44;57.98
15314;BME280;7757;52.626;4.746;2023-04-29T00:04:04;101380.03;;;16.41;58.37
15314;BME280;7757;52.626;4.746;2023-04-29T00:06:49;101386.25;;;16.42;58.14
15314;BME280;7757;52.626;4.746;2023-04-29T00:09:34;101382.09;;;16.39;58.48
15314;BME280;7757;52.626;4.746;2023-04-29T00:12:21;101392.47;;;16.42;57.73
15314;BME280;7757;52.626;4.746;2023-04-29T00:15:07;101395.41;;;16.41;58.16
15314;BME280;7757;52.626;4.746;2023-04-29T00:17:53;101397.03;;;16.42;58.24
15314;BME280;7757;52.626;4.746;2023-04-29T00:20:38;101406.19;;;16.41;58.42
15314;BME280;7757;52.626;4.746;2023-04-29T00:23:24;101391.44;;;16.37;57.83
15314;BME280;7757;52.626;4.746;2023-04-29T00:26:09;101405.78;;;16.37;57.61
15314;BME280;7757;52.626;4.746;2023-04-29T00:28:58;101418.03;;;16.40;58.29
15314;BME280;7757;52.626;4.746;2023-04-29T00:31:44;101419.06;;;16.39;58.73
15314;BME280;7757;52.626;4.746;2023-04-29T00:34:29;101421.97;;;16.37;58.58
15314;BME280;7757;52.626;4.746;2023-04-29T00:37:14;101425.50;;;16.38;58.48
15314;BME280;7757;52.626;4.746;2023-04-29T00:40:00;101425.50;;;16.38;58.15
15314;BME280;7757;52.626;4.746;2023-04-29T00:42:45;101432.97;;;16.36;58.25
15314;BME280;7757;52.626;4.746;2023-04-29T00:45:32;101427.38;;;16.37;57.61
15314;BME280;7757;52.626;4.746;2023-04-29T00:48:18;101432.78;;;16.37;58.48
15314;BME280;7757;52.626;4.746;2023-04-29T00:51:04;101430.91;;;16.38;58.33
15314;BME280;7757;52.626;4.746;2023-04-29T00:53:50;101432.78;;;16.37;58.33
15314;BME280;7757;52.626;4.746;2023-04-29T00:56:36;101438.19;;;16.37;58.08
15314;BME280;7757;52.626;4.746;2023-04-29T00:59:25;101446.47;;;16.36;58.37
15314;BME280;7757;52.626;4.746;2023-04-29T01:02:16;101447.13;;;16.38;58.10
15314;BME280;7757;52.626;4.746;2023-04-29T01:05:03;101446.47;;;16.36;58.23
15314;BME280;7757;52.626;4.746;2023-04-29T01:07:58;101454.78;;;16.34;58.21
15314;BME280;7757;52.626;4.746;2023-04-29T01:11:00;101452.50;;;16.31;58.30
15314;BME280;7757;52.626;4.746;2023-04-29T01:13:50;101463.91;;;16.33;57.71
15314;BME280;7757;52.626;4.746;2023-04-29T01:16:43;101463.91;;;16.33;57.73
15314;BME280;7757;52.626;4.746;2023-04-29T01:19:43;101473.88;;;16.33;57.72
15314;BME280;7757;52.626;4.746;2023-04-29T01:22:30;101471.81;;;16.35;58.20
15314;BME280;7757;52.626;4.746;2023-04-29T01:25:17;101479.09;;;16.34;58.26
15314;BME280;7757;52.626;4.746;2023-04-29T01:28:08;101482.81;;;16.33;58.61
15314;BME280;7757;52.626;4.746;2023-04-29T01:31:03;101479.28;;;16.33;58.47
15314;BME280;7757;52.626;4.746;2023-04-29T01:33:58;101480.53;;;16.30;58.66
15314;BME280;7757;52.626;4.746;2023-04-29T01:36:55;101481.38;;;16.31;58.66
15314;BME280;7757;52.626;4.746;2023-04-29T01:39:48;101478.88;;;16.29;58.22
15314;BME280;7757;52.626;4.746;2023-04-29T01:42:43;101483.22;;;16.30;58.24
15314;BME280;7757;52.626;4.746;2023-04-29T01:45:31;101485.94;;;16.30;57.74
15314;BME280;7757;52.626;4.746;2023-04-29T01:48:18;101488.63;;;16.30;58.07
15314;BME280;7757;52.626;4.746;2023-04-29T01:51:04;101495.09;;;16.29;58.48
15314;BME280;7757;52.626;4.746;2023-04-29T01:53:50;101491.31;;;16.30;58.71
15314;BME280;7757;52.626;4.746;2023-04-29T01:56:35;101473.91;;;16.19;58.52
15314;BME280;7757;52.626;4.746;2023-04-29T01:59:22;101490.50;;;16.30;58.38
15314;BME280;7757;52.626;4.746;2023-04-29T02:02:08;101494.44;;;16.27;58.56
15314;BME280;7757;52.626;4.746;2023-04-29T02:04:53;101497.78;;;16.29;58.06
15314;BME280;7757;52.626;4.746;2023-04-29T02:07:38;101502.53;;;16.27;58.44
15314;BME280;7757;52.626;4.746;2023-04-29T02:10:24;101508.78;;;16.28;58.76
15314;BME280;7757;52.626;4.746;2023-04-29T02:13:10;101515.00;;;16.28;58.49
15314;BME280;7757;52.626;4.746;2023-04-29T02:16:06;101501.50;;;16.22;58.40
15314;BME280;7757;52.626;4.746;2023-04-29T02:18:52;101508.16;;;16.26;58.22
15314;BME280;7757;52.626;4.746;2023-04-29T02:21:37;101508.56;;;16.23;58.55
15314;BME280;7757;52.626;4.746;2023-04-29T02:24:23;101520.81;;;16.25;58.50
15314;BME280;7757;52.626;4.746;2023-04-29T02:27:09;101513.75;;;16.24;57.97
15314;BME280;7757;52.626;4.746;2023-04-29T02:29:54;101525.19;;;16.26;58.41
15314;BME280;7757;52.626;4.746;2023-04-29T02:32:41;101527.06;;;16.26;57.60
15314;BME280;7757;52.626;4.746;2023-04-29T02:35:26;101536.19;;;16.25;58.47
15314;BME280;7757;52.626;4.746;2023-04-29T02:38:11;101536.59;;;16.22;58.54
15314;BME280;7757;52.626;4.746;2023-04-29T02:40:57;101538.03;;;16.24;58.74
15314;BME280;7757;52.626;4.746;2023-04-29T02:43:42;101540.97;;;16.23;58.16
15314;BME280;7757;52.626;4.746;2023-04-29T02:46:28;101549.88;;;16.23;58.19
15314;BME280;7757;52.626;4.746;2023-04-29T02:49:14;101548.03;;;16.24;58.65
15314;BME280;7757;52.626;4.746;2023-04-29T02:52:00;101532.41;;;16.12;57.86
15314;BME280;7757;52.626;4.746;2023-04-29T02:54:45;101548.22;;;16.22;58.33
15314;BME280;7757;52.626;4.746;2023-04-29T02:57:30;101542.81;;;16.22;58.19
15314;BME280;7757;52.626;4.746;2023-04-29T03:00:16;101541.78;;;16.23;58.31
15314;BME280;7757;52.626;4.746;2023-04-29T03:03:02;101551.13;;;16.21;58.19
15314;BME280;7757;52.626;4.746;2023-04-29T03:05:49;101550.91;;;16.15;57.81
15314;BME280;7757;52.626;4.746;2023-04-29T03:08:34;101556.72;;;16.12;58.51
15314;BME280;7757;52.626;4.746;2023-04-29T03:11:20;101564.00;;;16.18;57.68
15314;BME280;7757;52.626;4.746;2023-04-29T03:14:07;101570.22;;;16.19;58.67
15314;BME280;7757;52.626;4.746;2023-04-29T03:16:53;101570.63;;;16.16;57.83
15314;BME280;7757;52.626;4.746;2023-04-29T03:19:39;101584.75;;;16.18;57.89
15314;BME280;7757;52.626;4.746;2023-04-29T03:22:25;101578.94;;;16.14;58.35
15314;BME280;7757;52.626;4.746;2023-04-29T03:25:11;101584.13;;;16.16;58.34
15314;BME280;7757;52.626;4.746;2023-04-29T03:27:56;101558.75;;;15.97;58.24
15314;BME280;7757;52.626;4.746;2023-04-29T03:30:42;101592.44;;;16.14;58.46
15314;BME280;7757;52.626;4.746;2023-04-29T03:33:27;101596.78;;;16.15;57.83
15314;BME280;7757;52.626;4.746;2023-04-29T03:36:12;101594.09;;;16.15;58.48
15314;BME280;7757;52.626;4.746;2023-04-29T03:38:59;101601.34;;;16.15;58.55
15314;BME280;7757;52.626;4.746;2023-04-29T03:41:46;101594.09;;;16.15;58.29
15314;BME280;7757;52.626;4.746;2023-04-29T03:44:31;101603.22;;;16.14;58.29
15314;BME280;7757;52.626;4.746;2023-04-29T03:47:16;101607.78;;;16.14;57.80
15314;BME280;7757;52.626;4.746;2023-04-29T03:50:02;101611.72;;;16.11;58.60
15314;BME280;7757;52.626;4.746;2023-04-29T03:52:47;101611.53;;;16.13;58.68
15314;BME280;7757;52.626;4.746;2023-04-29T03:55:34;101608.59;;;16.08;58.29
15314;BME280;7757;52.626;4.746;2023-04-29T03:58:20;101610.69;;;16.12;58.33
15314;BME280;7757;52.626;4.746;2023-04-29T04:01:06;101608.38;;;16.09;58.20
15314;BME280;7757;52.626;4.746;2023-04-29T04:03:52;101608.19;;;16.11;57.92
15314;BME280;7757;52.626;4.746;2023-04-29T04:06:37;101610.91;;;16.11;58.44
15314;BME280;7757;52.626;4.746;2023-04-29T04:09:22;101619.00;;;16.11;57.98
15314;BME280;7757;52.626;4.746;2023-04-29T04:12:08;101621.06;;;16.09;58.59
15314;BME280;7757;52.626;4.746;2023-04-29T04:14:54;101617.31;;;16.10;58.51
15314;BME280;7757;52.626;4.746;2023-04-29T04:17:40;101617.09;;;16.05;58.39
15314;BME280;7757;52.626;4.746;2023-04-29T04:20:25;101629.97;;;16.09;57.91
15314;BME280;7757;52.626;4.746;2023-04-29T04:23:11;101635.38;;;16.09;58.56
15314;BME280;7757;52.626;4.746;2023-04-29T04:25:56;101634.34;;;16.10;58.33
15314;BME280;7757;52.626;4.746;2023-04-29T04:28:43;101641.19;;;16.13;58.32
15314;BME280;7757;52.626;4.746;2023-04-29T04:31:28;101652.84;;;16.13;57.78
15314;BME280;7757;52.626;4.746;2023-04-29T04:34:13;101643.50;;;16.16;57.67
15314;BME280;7757;52.626;4.746;2023-04-29T04:36:59;101645.16;;;16.17;57.79
15314;BME280;7757;52.626;4.746;2023-04-29T04:39:44;101653.88;;;16.19;57.55
15314;BME280;7757;52.626;4.746;2023-04-29T04:42:30;101657.22;;;16.21;57.66
15314;BME280;7757;52.626;4.746;2023-04-29T04:45:16;101651.00;;;16.21;57.90
15314;BME280;7757;52.626;4.746;2023-04-29T04:48:02;101652.88;;;16.20;57.85
15314;BME280;7757;52.626;4.746;2023-04-29T04:50:47;101663.88;;;16.25;57.62
15314;BME280;7757;52.626;4.746;2023-04-29T04:53:33;101663.06;;;16.31;57.97
15314;BME280;7757;52.626;4.746;2023-04-29T04:56:18;101675.13;;;16.35;57.16
15314;BME280;7757;52.626;4.746;2023-04-29T04:59:04;101671.81;;;16.40;57.27
15314;BME280;7757;52.626;4.746;2023-04-29T05:01:50;101672.66;;;16.47;57.26
15314;BME280;7757;52.626;4.746;2023-04-29T05:04:36;101675.59;;;16.52;57.54
15314;BME280;7757;52.626;4.746;2023-04-29T05:07:21;101674.97;;;16.50;57.11
15314;BME280;7757;52.626;4.746;2023-04-29T05:10:07;101683.75;;;16.58;57.30
15314;BME280;7757;52.626;4.746;2023-04-29T05:12:53;101692.06;;;16.63;57.03
15314;BME280;7757;52.626;4.746;2023-04-29T05:15:38;101684.16;;;16.75;56.43
15314;BME280;7757;52.626;4.746;2023-04-29T05:18:25;101695.44;;;16.85;56.64
15314;BME280;7757;52.626;4.746;2023-04-29T05:21:10;101685.84;;;16.96;56.16
15314;BME280;7757;52.626;4.746;2023-04-29T05:23:55;101690.44;;;17.08;55.66
15314;BME280;7757;52.626;4.746;2023-04-29T05:26:41;101696.06;;;17.20;55.44
15314;BME280;7757;52.626;4.746;2023-04-29T05:29:27;101690.66;;;17.26;55.74
15314;BME280;7757;52.626;4.746;2023-04-29T05:32:12;101701.84;;;17.30;55.52
15314;BME280;7757;52.626;4.746;2023-04-29T05:34:59;101707.88;;;17.45;55.19
15314;BME280;7757;52.626;4.746;2023-04-29T05:37:44;101703.09;;;17.54;54.71
15314;BME280;7757;52.626;4.746;2023-04-29T05:40:32;101701.06;;;17.62;54.64
15314;BME280;7757;52.626;4.746;2023-04-29T05:43:17;101706.16;;;17.90;54.09
15314;BME280;7757;52.626;4.746;2023-04-29T05:46:02;101706.56;;;18.07;53.61
15314;BME280;7757;52.626;4.746;2023-04-29T05:48:49;101713.34;;;18.22;53.29
15314;BME280;7757;52.626;4.746;2023-04-29T05:51:35;101704.34;;;18.35;52.57
15314;BME280;7757;52.626;4.746;2023-04-29T05:54:21;101716.75;;;18.56;52.54
15314;BME280;7757;52.626;4.746;2023-04-29T05:57:06;101725.59;;;18.76;51.80
15314;BME280;7757;52.626;4.746;2023-04-29T05:59:52;101727.56;;;18.93;51.81
15314;BME280;7757;52.626;4.746;2023-04-29T06:02:38;101731.47;;;19.04;51.89
15314;BME280;7757;52.626;4.746;2023-04-29T06:05:25;101741.22;;;19.12;51.59
15314;BME280;7757;52.626;4.746;2023-04-29T06:08:12;101750.91;;;19.26;51.24
15314;BME280;7757;52.626;4.746;2023-04-29T06:10:58;101751.69;;;19.39;51.16
15314;BME280;7757;52.626;4.746;2023-04-29T06:13:43;101754.25;;;19.53;50.97
15314;BME280;7757;52.626;4.746;2023-04-29T06:16:28;101758.16;;;19.63;51.00
15314;BME280;7757;52.626;4.746;2023-04-29T06:19:14;101750.91;;;19.75;51.06
15314;BME280;7757;52.626;4.746;2023-04-29T06:21:59;101768.06;;;19.94;50.58
15314;BME280;7757;52.626;4.746;2023-04-29T06:24:46;101774.09;;;19.96;50.38
15314;BME280;7757;52.626;4.746;2023-04-29T06:27:32;101775.63;;;20.10;50.17
15314;BME280;7757;52.626;4.746;2023-04-29T06:30:18;101772.75;;;20.23;50.15
15314;BME280;7757;52.626;4.746;2023-04-29T06:33:03;101775.41;;;20.30;49.98
15314;BME280;7757;52.626;4.746;2023-04-29T06:35:48;101782.88;;;20.34;49.88
15314;BME280;7757;52.626;4.746;2023-04-29T06:38:34;101798.28;;;20.40;49.55
15314;BME280;7757;52.626;4.746;2023-04-29T06:41:20;101796.31;;;20.47;49.61
15314;BME280;7757;52.626;4.746;2023-04-29T06:44:06;101793.53;;;20.54;49.78
15314;BME280;7757;52.626;4.746;2023-04-29T06:46:51;101800.78;;;20.60;49.40
15314;BME280;7757;52.626;4.746;2023-04-29T06:49:37;101801.50;;;20.67;49.14
15314;BME280;7757;52.626;4.746;2023-04-29T06:52:22;101802.84;;;20.76;49.31
15314;BME280;7757;52.626;4.746;2023-04-29T06:55:08;101800.38;;;20.75;48.74
15314;BME280;7757;52.626;4.746;2023-04-29T06:57:55;101808.78;;;20.85;48.50
15314;BME280;7757;52.626;4.746;2023-04-29T07:00:43;101804.19;;;20.85;49.10
15314;BME280;7757;52.626;4.746;2023-04-29T07:03:29;101812.63;;;20.95;48.31
15314;BME280;7757;52.626;4.746;2023-04-29T07:06:14;101816.53;;;20.99;48.28
15314;BME280;7757;52.626;4.746;2023-04-29T07:08:59;101821.75;;;21.01;48.13
15314;BME280;7757;52.626;4.746;2023-04-29T07:11:45;101827.13;;;21.07;48.48
15314;BME280;7757;52.626;4.746;2023-04-29T07:14:31;101835.91;;;21.09;48.05
15314;BME280;7757;52.626;4.746;2023-04-29T07:17:16;101847.75;;;21.15;48.05
15314;BME280;7757;52.626;4.746;2023-04-29T07:20:02;101845.41;;;21.19;48.30
15314;BME280;7757;52.626;4.746;2023-04-29T07:22:48;101846.44;;;21.18;48.39
15314;BME280;7757;52.626;4.746;2023-04-29T07:25:33;101841.00;;;21.18;47.83
15314;BME280;7757;52.626;4.746;2023-04-29T07:28:19;101842.59;;;21.25;48.18
15314;BME280;7757;52.626;4.746;2023-04-29T07:31:05;101854.81;;;21.34;47.59
15314;BME280;7757;52.626;4.746;2023-04-29T07:33:51;101852.44;;;21.38;47.54
15314;BME280;7757;52.626;4.746;2023-04-29T07:36:36;101859.06;;;21.42;47.82
15314;BME280;7757;52.626;4.746;2023-04-29T07:39:22;101862.06;;;21.52;47.90
15314;BME280;7757;52.626;4.746;2023-04-29T07:42:07;101867.38;;;21.58;47.54
15314;BME280;7757;52.626;4.746;2023-04-29T07:44:53;101864.94;;;21.68;47.17
15314;BME280;7757;52.626;4.746;2023-04-29T07:47:40;101867.56;;;21.75;46.92
15314;BME280;7757;52.626;4.746;2023-04-29T07:50:25;101877.03;;;21.84;46.95
15314;BME280;7757;52.626;4.746;2023-04-29T07:53:10;101876.59;;;21.87;47.10
15314;BME280;7757;52.626;4.746;2023-04-29T07:55:56;101872.13;;;21.93;47.07
15314;BME280;7757;52.626;4.746;2023-04-29T07:58:41;101873.28;;;21.97;47.03
15314;BME280;7757;52.626;4.746;2023-04-29T08:01:27;101879.56;;;22.09;47.14
15314;BME280;7757;52.626;4.746;2023-04-29T08:04:13;101878.63;;;22.15;46.77
15314;BME280;7757;52.626;4.746;2023-04-29T08:06:59;101873.06;;;22.21;47.02
15314;BME280;7757;52.626;4.746;2023-04-29T08:09:45;101877.78;;;22.26;46.35
15314;BME280;7757;52.626;4.746;2023-04-29T08:12:31;101874.72;;;22.34;47.01
15314;BME280;7757;52.626;4.746;2023-04-29T08:15:17;101881.94;;;22.40;46.42
15314;BME280;7757;52.626;4.746;2023-04-29T08:18:03;101882.31;;;22.44;46.07
15314;BME280;7757;52.626;4.746;2023-04-29T08:20:50;101880.84;;;22.41;46.70
15314;BME280;7757;52.626;4.746;2023-04-29T08:23:35;101898.88;;;22.54;45.98
15314;BME280;7757;52.626;4.746;2023-04-29T08:26:21;101892.69;;;22.47;46.30
15314;BME280;7757;52.626;4.746;2023-04-29T08:29:06;101892.22;;;22.50;46.19
15314;BME280;7757;52.626;4.746;2023-04-29T08:31:52;101896.53;;;22.46;46.60
15314;BME280;7757;52.626;4.746;2023-04-29T08:34:37;101899.47;;;22.44;46.33
15314;BME280;7757;52.626;4.746;2023-04-29T08:37:25;101895.56;;;22.40;46.84
15314;BME280;7757;52.626;4.746;2023-04-29T08:40:12;101905.41;;;22.41;47.12
15314;BME280;7757;52.626;4.746;2023-04-29T08:42:58;101905.53;;;22.46;47.16
15314;BME280;7757;52.626;4.746;2023-04-29T08:45:44;101896.53;;;22.34;47.24
15314;BME280;7757;52.626;4.746;2023-04-29T08:48:33;101896.75;;;22.33;46.79
15314;BME280;7757;52.626;4.746;2023-04-29T08:51:19;101910.03;;;22.41;47.07
15314;BME280;7757;52.626;4.746;2023-04-29T08:54:09;101919.16;;;22.35;47.00
15314;BME280;7757;52.626;4.746;2023-04-29T08:56:55;101915.13;;;22.37;46.97
15314;BME280;7757;52.626;4.746;2023-04-29T08:59:41;101923.69;;;22.41;46.70
15314;BME280;7757;52.626;4.746;2023-04-29T09:02:27;101936.47;;;22.40;46.74
15314;BME280;7757;52.626;4.746;2023-04-29T09:05:13;101918.56;;;22.33;47.02
15314;BME280;7757;52.626;4.746;2023-04-29T09:07:59;101936.69;;;22.39;47.74
15314;BME280;7757;52.626;4.746;2023-04-29T09:10:48;101933.84;;;22.34;47.46
15314;BME280;7757;52.626;4.746;2023-04-29T09:13:34;101930.53;;;22.32;47.85
15314;BME280;7757;52.626;4.746;2023-04-29T09:16:20;101930.19;;;22.28;47.67
15314;BME280;7757;52.626;4.746;2023-04-29T09:19:05;101944.03;;;22.27;47.38
15314;BME280;7757;52.626;4.746;2023-04-29T09:21:53;101938.94;;;22.30;47.67
15314;BME280;7757;52.626;4.746;2023-04-29T09:24:40;101939.78;;;22.31;47.98
15314;BME280;7757;52.626;4.746;2023-04-29T09:27:28;101948.19;;;22.29;47.48
15314;BME280;7757;52.626;4.746;2023-04-29T09:30:13;101947.59;;;22.27;47.95
15314;BME280;7757;52.626;4.746;2023-04-29T09:33:04;101934.44;;;22.24;48.14
15314;BME280;7757;52.626;4.746;2023-04-29T09:35:49;101949.94;;;22.23;47.77
15314;BME280;7757;52.626;4.746;2023-04-29T09:38:35;101942.50;;;22.19;48.17
15314;BME280;7757;52.626;4.746;2023-04-29T09:41:20;101935.84;;;22.15;48.52
15314;BME280;7757;52.626;4.746;2023-04-29T09:44:08;101942.13;;;22.15;47.94
15314;BME280;7757;52.626;4.746;2023-04-29T09:46:54;101938.56;;;22.15;48.56
15314;BME280;7757;52.626;4.746;2023-04-29T09:49:42;101938.94;;;22.07;48.95
15314;BME280;7757;52.626;4.746;2023-04-29T09:52:39;101941.19;;;22.10;48.21
15314;BME280;7757;52.626;4.746;2023-04-29T09:55:24;101946.63;;;22.10;48.57
15314;BME280;7757;52.626;4.746;2023-04-29T09:58:26;101942.97;;;22.04;48.75
15314;BME280;7757;52.626;4.746;2023-04-29T10:01:14;101953.03;;;22.04;48.94
15314;BME280;7757;52.626;4.746;2023-04-29T10:04:04;101935.59;;;21.93;48.27
15314;BME280;7757;52.626;4.746;2023-04-29T10:06:53;101945.78;;;21.98;48.50
15314;BME280;7757;52.626;4.746;2023-04-29T10:09:38;101952.28;;;21.97;49.02
15314;BME280;7757;52.626;4.746;2023-04-29T10:12:24;101947.78;;;21.91;48.72
15314;BME280;7757;52.626;4.746;2023-04-29T10:15:16;101957.25;;;21.88;49.06
15314;BME280;7757;52.626;4.746;2023-04-29T10:18:12;101947.25;;;21.82;49.34
15314;BME280;7757;52.626;4.746;2023-04-29T10:20:59;101944.78;;;21.81;49.51
15314;BME280;7757;52.626;4.746;2023-04-29T10:23:47;101946.28;;;21.77;49.53
15314;BME280;7757;52.626;4.746;2023-04-29T10:26:33;101943.81;;;21.75;50.04
15314;BME280;7757;52.626;4.746;2023-04-29T10:29:21;101949.94;;;21.70;50.13
15314;BME280;7757;52.626;4.746;2023-04-29T10:32:08;101953.38;;;21.66;50.02
15314;BME280;7757;52.626;4.746;2023-04-29T10:34:55;101959.66;;;21.66;50.67
15314;BME280;7757;52.626;4.746;2023-04-29T10:37:43;101960.72;;;21.65;50.76
15314;BME280;7757;52.626;4.746;2023-04-29T10:40:35;101957.03;;;21.60;50.79
15314;BME280;7757;52.626;4.746;2023-04-29T10:43:25;101949.06;;;21.58;50.55
15314;BME280;7757;52.626;4.746;2023-04-29T10:46:17;101959.16;;;21.58;50.59
15314;BME280;7757;52.626;4.746;2023-04-29T10:49:03;101952.50;;;21.54;50.95
15314;BME280;7757;52.626;4.746;2023-04-29T10:51:50;101955.69;;;21.51;51.45
15314;BME280;7757;52.626;4.746;2023-04-29T10:54:38;101953.78;;;21.51;50.77
15314;BME280;7757;52.626;4.746;2023-04-29T10:57:24;101963.25;;;21.49;51.19
15314;BME280;7757;52.626;4.746;2023-04-29T11:00:20;101928.38;;;21.28;51.67
15314;BME280;7757;52.626;4.746;2023-04-29T11:03:06;101948.97;;;21.35;51.31
15314;BME280;7757;52.626;4.746;2023-04-29T11:06:07;101966.91;;;21.43;51.07
15314;BME280;7757;52.626;4.746;2023-04-29T11:09:01;101951.94;;;21.34;51.53
15314;BME280;7757;52.626;4.746;2023-04-29T11:11:59;101960.84;;;21.41;51.50
15314;BME280;7757;52.626;4.746;2023-04-29T11:14:49;101960.50;;;21.37;51.51
15314;BME280;7757;52.626;4.746;2023-04-29T11:17:35;101943.28;;;21.25;51.41
15314;BME280;7757;52.626;4.746;2023-04-29T11:20:21;101963.41;;;21.36;51.46
15314;BME280;7757;52.626;4.746;2023-04-29T11:23:06;101962.00;;;21.33;51.85
15314;BME280;7757;52.626;4.746;2023-04-29T11:25:53;101962.22;;;21.32;52.13
15314;BME280;7757;52.626;4.746;2023-04-29T11:28:40;101962.00;;;21.33;51.87
15314;BME280;7757;52.626;4.746;2023-04-29T11:31:29;101970.38;;;21.32;52.08
15314;BME280;7757;52.626;4.746;2023-04-29T11:34:14;101964.13;;;21.31;51.51
15314;BME280;7757;52.626;4.746;2023-04-29T11:37:00;101965.38;;;21.29;51.82
15314;BME280;7757;52.626;4.746;2023-04-29T11:39:45;101966.47;;;21.28;51.62
15314;BME280;7757;52.626;4.746;2023-04-29T11:42:33;101934.72;;;21.03;51.88
15314;BME280;7757;52.626;4.746;2023-04-29T11:45:19;101974.25;;;21.24;52.16
15314;BME280;7757;52.626;4.746;2023-04-29T11:48:04;101973.66;;;21.22;51.68
15314;BME280;7757;52.626;4.746;2023-04-29T11:50:51;101980.75;;;21.23;51.97
15314;BME280;7757;52.626;4.746;2023-04-29T11:53:37;101990.00;;;21.22;52.01
15314;BME280;7757;52.626;4.746;2023-04-29T11:56:23;101970.41;;;21.13;51.99
15314;BME280;7757;52.626;4.746;2023-04-29T11:59:10;101987.47;;;21.21;52.13
15314;BME280;7757;52.626;4.746;2023-04-29T12:01:57;101987.47;;;21.21;52.24
15314;BME280;7757;52.626;4.746;2023-04-29T12:04:46;101984.38;;;21.17;51.93
15314;BME280;7757;52.626;4.746;2023-04-29T12:07:31;101980.59;;;21.18;52.26
15314;BME280;7757;52.626;4.746;2023-04-29T12:10:16;101986.28;;;21.17;52.03
15314;BME280;7757;52.626;4.746;2023-04-29T12:13:02;101970.25;;;21.08;52.30
15314;BME280;7757;52.626;4.746;2023-04-29T12:15:50;101981.06;;;21.15;51.95
15314;BME280;7757;52.626;4.746;2023-04-29T12:18:36;101980.22;;;21.14;52.22
15314;BME280;7757;52.626;4.746;2023-04-29T12:21:22;101978.59;;;21.13;51.95
15314;BME280;7757;52.626;4.746;2023-04-29T12:24:08;101984.84;;;21.14;52.07
15314;BME280;7757;52.626;4.746;2023-04-29T12:26:54;101986.75;;;21.13;52.68
15314;BME280;7757;52.626;4.746;2023-04-29T12:29:39;101991.56;;;21.11;52.29
15314;BME280;7757;52.626;4.746;2023-04-29T12:32:26;101986.13;;;21.11;52.65
15314;BME280;7757;52.626;4.746;2023-04-29T12:35:15;101980.09;;;21.09;52.82
15314;BME280;7757;52.626;4.746;2023-04-29T12:38:01;101977.78;;;21.06;52.41
15314;BME280;7757;52.626;4.746;2023-04-29T12:40:47;101984.91;;;21.07;52.39
15314;BME280;7757;52.626;4.746;2023-04-29T12:43:33;101994.72;;;21.08;52.88
15314;BME280;7757;52.626;4.746;2023-04-29T12:46:19;101993.28;;;21.06;52.87
15314;BME280;7757;52.626;4.746;2023-04-29T12:49:07;101996.81;;;21.06;52.22
15314;BME280;7757;52.626;4.746;2023-04-29T12:51:52;102006.03;;;21.05;52.75
15314;BME280;7757;52.626;4.746;2023-04-29T12:54:38;102005.81;;;21.07;52.62
15314;BME280;7757;52.626;4.746;2023-04-29T12:57:27;101993.06;;;21.07;52.30
15314;BME280;7757;52.626;4.746;2023-04-29T13:00:12;102000.00;;;21.03;52.36
15314;BME280;7757;52.626;4.746;2023-04-29T13:02:58;102002.72;;;21.03;52.69
15314;BME280;7757;52.626;4.746;2023-04-29T13:05:45;102007.56;;;21.01;52.24
15314;BME280;7757;52.626;4.746;2023-04-29T13:08:33;102003.56;;;21.04;52.35
15314;BME280;7757;52.626;4.746;2023-04-29T13:11:19;102009.44;;;21.01;52.03
15314;BME280;7757;52.626;4.746;2023-04-29T13:14:05;102000.06;;;20.97;52.31
15314;BME280;7757;52.626;4.746;2023-04-29T13:16:50;102004.84;;;21.01;52.66
15314;BME280;7757;52.626;4.746;2023-04-29T13:19:36;102010.28;;;21.01;52.48
15314;BME280;7757;52.626;4.746;2023-04-29T13:22:22;102009.44;;;21.01;52.79
15314;BME280;7757;52.626;4.746;2023-04-29T13:25:09;102003.16;;;21.00;52.78
15314;BME280;7757;52.626;4.746;2023-04-29T13:27:54;102007.78;;;21.00;52.75
15314;BME280;7757;52.626;4.746;2023-04-29T13:30:43;102006.94;;;20.99;52.27
15314;BME280;7757;52.626;4.746;2023-04-29T13:33:29;102005.50;;;20.97;52.71
15314;BME280;7757;52.626;4.746;2023-04-29T13:36:14;102013.47;;;20.98;52.41
15314;BME280;7757;52.626;4.746;2023-04-29T13:39:02;101972.13;;;20.72;52.92
15314;BME280;7757;52.626;4.746;2023-04-29T13:41:47;102018.91;;;20.98;52.09
15314;BME280;7757;52.626;4.746;2023-04-29T13:44:33;102011.84;;;20.91;52.35
15314;BME280;7757;52.626;4.746;2023-04-29T13:47:19;101997.50;;;20.84;52.60
15314;BME280;7757;52.626;4.746;2023-04-29T13:50:06;102017.06;;;20.92;52.38
15314;BME280;7757;52.626;4.746;2023-04-29T13:52:51;102010.41;;;20.88;52.28
15314;BME280;7757;52.626;4.746;2023-04-29T13:55:38;102015.66;;;20.90;52.88
15314;BME280;7757;52.626;4.746;2023-04-29T13:58:24;102012.59;;;20.80;52.65
15314;BME280;7757;52.626;4.746;2023-04-29T14:01:09;102021.97;;;20.84;52.66
15314;BME280;7757;52.626;4.746;2023-04-29T14:03:54;102025.06;;;20.87;53.00
15314;BME280;7757;52.626;4.746;2023-04-29T14:06:41;102029.69;;;20.87;52.88
15314;BME280;7757;52.626;4.746;2023-04-29T14:09:27;102029.75;;;20.80;52.82
15314;BME280;7757;52.626;4.746;2023-04-29T14:12:13;102039.13;;;20.84;52.62
15314;BME280;7757;52.626;4.746;2023-04-29T14:14:59;102043.09;;;20.82;52.72
15314;BME280;7757;52.626;4.746;2023-04-29T14:17:45;102042.13;;;20.76;52.40
15314;BME280;7757;52.626;4.746;2023-04-29T14:20:30;102038.41;;;20.71;52.66
15314;BME280;7757;52.626;4.746;2023-04-29T14:23:16;102060.94;;;20.78;52.99
15314;BME280;7757;52.626;4.746;2023-04-29T14:26:01;102053.44;;;20.73;52.82
15314;BME280;7757;52.626;4.746;2023-04-29T14:28:48;102068.28;;;20.77;52.70
15314;BME280;7757;52.626;4.746;2023-04-29T14:31:39;102064.13;;;20.75;52.57
15314;BME280;7757;52.626;4.746;2023-04-29T14:34:25;102063.03;;;20.76;52.12
15314;BME280;7757;52.626;4.746;2023-04-29T14:37:10;102068.13;;;20.72;52.92
15314;BME280;7757;52.626;4.746;2023-04-29T14:39:56;102067.28;;;20.72;52.84
15314;BME280;7757;52.626;4.746;2023-04-29T14:42:41;102071.03;;;20.71;52.47